sensor_id;sensor_type;location;lat;lon;timestamp;P1;durP1;ratioP1;P2;durP2;ratioP2
29200;SDS011;16244;51.956;12.980;2024-03-17T00:00:11;1.67;;;1.57;;
29200;SDS011;16244;51.956;12.980;2024-03-17T00:02:40;1.10;;;1.10;;
29200;SDS011;16244;51.956;12.980;2024-03-17T00:05:11;7.80;;;0.90;;
29200;SDS011;16244;51.956;12.980;2024-03-17T00:07:37;2.40;;;1.17;;
29200;SDS011;16244;51.956;12.980;2024-03-17T00:10:06;2.10;;;1.60;;
29200;SDS011;16244;51.956;12.980;2024-03-17T00:12:33;2.20;;;1.27;;
29200;SDS011;16244;51.956;12.980;2024-03-17T00:15:01;4.60;;;1.90;;
29200;SDS011;16244;51.956;12.980;2024-03-17T00:17:28;2.83;;;1.40;;
29200;SDS011;16244;51.956;12.980;2024-03-17T00:19:55;13.73;;;1.70;;
29200;SDS011;16244;51.956;12.980;2024-03-17T00:22:22;1.17;;;1.10;;
29200;SDS011;16244;51.956;12.980;2024-03-17T00:24:50;2.27;;;1.27;;
29200;SDS011;16244;51.956;12.980;2024-03-17T00:27:18;5.03;;;1.53;;
29200;SDS011;16244;51.956;12.980;2024-03-17T00:29:47;1.50;;;1.40;;
29200;SDS011;16244;51.956;12.980;2024-03-17T00:32:14;3.47;;;1.20;;
29200;SDS011;16244;51.956;12.980;2024-03-17T00:34:45;3.03;;;1.30;;
29200;SDS011;16244;51.956;12.980;2024-03-17T00:37:11;1.60;;;1.10;;
29200;SDS011;16244;51.956;12.980;2024-03-17T00:39:39;10.40;;;1.23;;
29200;SDS011;16244;51.956;12.980;2024-03-17T00:42:06;1.47;;;1.47;;
29200;SDS011;16244;51.956;12.980;2024-03-17T00:44:35;2.40;;;1.23;;
29200;SDS011;16244;51.956;12.980;2024-03-17T00:47:02;3.10;;;1.47;;
29200;SDS011;16244;51.956;12.980;2024-03-17T00:49:31;5.83;;;1.53;;
29200;SDS011;16244;51.956;12.980;2024-03-17T00:51:57;1.00;;;0.90;;
29200;SDS011;16244;51.956;12.980;2024-03-17T00:54:25;2.67;;;1.10;;
29200;SDS011;16244;51.956;12.980;2024-03-17T00:56:52;7.00;;;1.10;;
29200;SDS011;16244;51.956;12.980;2024-03-17T00:59:20;1.40;;;1.37;;
29200;SDS011;16244;51.956;12.980;2024-03-17T01:01:48;4.33;;;1.10;;
29200;SDS011;16244;51.956;12.980;2024-03-17T01:04:15;4.30;;;1.07;;
29200;SDS011;16244;51.956;12.980;2024-03-17T01:06:42;5.23;;;1.33;;
29200;SDS011;16244;51.956;12.980;2024-03-17T01:09:09;1.27;;;1.17;;
29200;SDS011;16244;51.956;12.980;2024-03-17T01:11:36;4.10;;;0.83;;
29200;SDS011;16244;51.956;12.980;2024-03-17T01:14:04;2.77;;;1.20;;
29200;SDS011;16244;51.956;12.980;2024-03-17T01:16:31;0.73;;;0.73;;
29200;SDS011;16244;51.956;12.980;2024-03-17T01:19:00;2.77;;;1.30;;
29200;SDS011;16244;51.956;12.980;2024-03-17T01:21:26;2.67;;;1.00;;
29200;SDS011;16244;51.956;12.980;2024-03-17T01:23:54;5.07;;;1.07;;
29200;SDS011;16244;51.956;12.980;2024-03-17T01:26:22;3.40;;;1.50;;
29200;SDS011;16244;51.956;12.980;2024-03-17T01:28:50;3.00;;;1.03;;
29200;SDS011;16244;51.956;12.980;2024-03-17T01:31:18;2.20;;;1.23;;
29200;SDS011;16244;51.956;12.980;2024-03-17T01:33:44;3.00;;;1.50;;
29200;SDS011;16244;51.956;12.980;2024-03-17T01:36:14;0.93;;;0.80;;
29200;SDS011;16244;51.956;12.980;2024-03-17T01:38:40;1.87;;;1.40;;
29200;SDS011;16244;51.956;12.980;2024-03-17T01:41:07;2.43;;;0.80;;
29200;SDS011;16244;51.956;12.980;2024-03-17T01:43:34;3.80;;;1.33;;
29200;SDS011;16244;51.956;12.980;2024-03-17T01:46:02;2.07;;;1.60;;
29200;SDS011;16244;51.956;12.980;2024-03-17T01:48:28;2.00;;;1.23;;
29200;SDS011;16244;51.956;12.980;2024-03-17T01:50:56;2.93;;;1.10;;
29200;SDS011;16244;51.956;12.980;2024-03-17T01:53:25;4.43;;;1.60;;
29200;SDS011;16244;51.956;12.980;2024-03-17T01:55:54;2.23;;;1.50;;
29200;SDS011;16244;51.956;12.980;2024-03-17T01:58:28;2.53;;;1.40;;
29200;SDS011;16244;51.956;12.980;2024-03-17T02:01:02;2.70;;;1.93;;
29200;SDS011;16244;51.956;12.980;2024-03-17T02:03:30;4.13;;;1.30;;
29200;SDS011;16244;51.956;12.980;2024-03-17T02:05:57;6.10;;;1.30;;
29200;SDS011;16244;51.956;12.980;2024-03-17T02:08:25;6.27;;;1.50;;
29200;SDS011;16244;51.956;12.980;2024-03-17T02:10:53;5.40;;;1.20;;
29200;SDS011;16244;51.956;12.980;2024-03-17T02:13:20;1.63;;;1.33;;
29200;SDS011;16244;51.956;12.980;2024-03-17T02:15:49;3.97;;;1.10;;
29200;SDS011;16244;51.956;12.980;2024-03-17T02:18:16;3.03;;;1.70;;
29200;SDS011;16244;51.956;12.980;2024-03-17T02:20:45;1.50;;;1.40;;
29200;SDS011;16244;51.956;12.980;2024-03-17T02:23:27;2.20;;;1.10;;
29200;SDS011;16244;51.956;12.980;2024-03-17T02:25:54;4.33;;;1.50;;
29200;SDS011;16244;51.956;12.980;2024-03-17T02:28:21;2.93;;;1.13;;
29200;SDS011;16244;51.956;12.980;2024-03-17T02:30:49;2.20;;;1.17;;
29200;SDS011;16244;51.956;12.980;2024-03-17T02:33:16;4.37;;;1.80;;
29200;SDS011;16244;51.956;12.980;2024-03-17T02:35:45;2.40;;;0.80;;
29200;SDS011;16244;51.956;12.980;2024-03-17T02:38:15;1.00;;;1.00;;
29200;SDS011;16244;51.956;12.980;2024-03-17T02:41:05;2.60;;;1.63;;
29200;SDS011;16244;51.956;12.980;2024-03-17T02:43:32;1.07;;;1.07;;
29200;SDS011;16244;51.956;12.980;2024-03-17T02:46:01;1.10;;;1.10;;
29200;SDS011;16244;51.956;12.980;2024-03-17T02:48:31;1.17;;;1.03;;
29200;SDS011;16244;51.956;12.980;2024-03-17T02:50:59;2.83;;;1.50;;
29200;SDS011;16244;51.956;12.980;2024-03-17T02:53:26;3.00;;;1.57;;
29200;SDS011;16244;51.956;12.980;2024-03-17T02:55:56;1.30;;;1.27;;
29200;SDS011;16244;51.956;12.980;2024-03-17T02:58:25;1.73;;;1.13;;
29200;SDS011;16244;51.956;12.980;2024-03-17T03:00:52;2.63;;;1.50;;
29200;SDS011;16244;51.956;12.980;2024-03-17T03:03:21;8.20;;;1.13;;
29200;SDS011;16244;51.956;12.980;2024-03-17T03:05:48;1.00;;;0.80;;
29200;SDS011;16244;51.956;12.980;2024-03-17T03:08:16;2.47;;;1.57;;
29200;SDS011;16244;51.956;12.980;2024-03-17T03:10:44;10.33;;;0.80;;
29200;SDS011;16244;51.956;12.980;2024-03-17T03:13:12;1.70;;;1.17;;
29200;SDS011;16244;51.956;12.980;2024-03-17T03:15:41;5.40;;;1.20;;
29200;SDS011;16244;51.956;12.980;2024-03-17T03:18:10;2.60;;;0.93;;
29200;SDS011;16244;51.956;12.980;2024-03-17T03:20:37;2.73;;;1.37;;
29200;SDS011;16244;51.956;12.980;2024-03-17T03:23:05;2.10;;;0.60;;
29200;SDS011;16244;51.956;12.980;2024-03-17T03:25:33;6.20;;;0.90;;
29200;SDS011;16244;51.956;12.980;2024-03-17T03:28:00;4.53;;;0.60;;
29200;SDS011;16244;51.956;12.980;2024-03-17T03:30:28;4.43;;;1.17;;
29200;SDS011;16244;51.956;12.980;2024-03-17T03:32:57;2.43;;;1.10;;
29200;SDS011;16244;51.956;12.980;2024-03-17T03:35:27;1.53;;;1.10;;
29200;SDS011;16244;51.956;12.980;2024-03-17T03:37:55;3.60;;;0.97;;
29200;SDS011;16244;51.956;12.980;2024-03-17T03:40:23;1.67;;;1.00;;
29200;SDS011;16244;51.956;12.980;2024-03-17T03:42:53;3.73;;;0.90;;
29200;SDS011;16244;51.956;12.980;2024-03-17T03:45:20;0.97;;;0.77;;
29200;SDS011;16244;51.956;12.980;2024-03-17T03:47:49;4.60;;;1.20;;
29200;SDS011;16244;51.956;12.980;2024-03-17T03:50:21;3.33;;;1.30;;
29200;SDS011;16244;51.956;12.980;2024-03-17T03:52:50;2.80;;;1.57;;
29200;SDS011;16244;51.956;12.980;2024-03-17T03:55:18;4.93;;;1.60;;
29200;SDS011;16244;51.956;12.980;2024-03-17T03:57:46;0.83;;;0.80;;
29200;SDS011;16244;51.956;12.980;2024-03-17T04:00:17;5.13;;;1.27;;
29200;SDS011;16244;51.956;12.980;2024-03-17T04:02:47;3.70;;;1.73;;
29200;SDS011;16244;51.956;12.980;2024-03-17T04:05:16;7.63;;;1.20;;
29200;SDS011;16244;51.956;12.980;2024-03-17T04:07:46;4.53;;;1.30;;
29200;SDS011;16244;51.956;12.980;2024-03-17T04:10:15;9.60;;;1.97;;
29200;SDS011;16244;51.956;12.980;2024-03-17T04:12:44;1.37;;;1.27;;
29200;SDS011;16244;51.956;12.980;2024-03-17T04:15:14;8.50;;;1.70;;
29200;SDS011;16244;51.956;12.980;2024-03-17T04:17:46;6.87;;;1.13;;
29200;SDS011;16244;51.956;12.980;2024-03-17T04:20:14;1.37;;;1.07;;
29200;SDS011;16244;51.956;12.980;2024-03-17T04:22:42;5.23;;;1.30;;
29200;SDS011;16244;51.956;12.980;2024-03-17T04:25:11;2.53;;;1.10;;
29200;SDS011;16244;51.956;12.980;2024-03-17T04:27:40;2.20;;;1.13;;
29200;SDS011;16244;51.956;12.980;2024-03-17T04:30:08;4.60;;;1.33;;
29200;SDS011;16244;51.956;12.980;2024-03-17T04:32:37;4.03;;;2.47;;
29200;SDS011;16244;51.956;12.980;2024-03-17T04:35:09;3.17;;;1.27;;
29200;SDS011;16244;51.956;12.980;2024-03-17T04:37:36;4.60;;;1.50;;
29200;SDS011;16244;51.956;12.980;2024-03-17T04:40:06;1.33;;;0.80;;
29200;SDS011;16244;51.956;12.980;2024-03-17T04:42:38;3.23;;;1.40;;
29200;SDS011;16244;51.956;12.980;2024-03-17T04:45:07;3.07;;;1.40;;
29200;SDS011;16244;51.956;12.980;2024-03-17T04:47:36;7.90;;;1.30;;
29200;SDS011;16244;51.956;12.980;2024-03-17T04:50:05;5.37;;;1.57;;
29200;SDS011;16244;51.956;12.980;2024-03-17T04:52:32;4.63;;;1.67;;
29200;SDS011;16244;51.956;12.980;2024-03-17T04:55:00;5.60;;;1.60;;
29200;SDS011;16244;51.956;12.980;2024-03-17T04:57:29;2.87;;;1.40;;
29200;SDS011;16244;51.956;12.980;2024-03-17T04:59:58;2.83;;;0.90;;
29200;SDS011;16244;51.956;12.980;2024-03-17T05:02:28;2.20;;;1.17;;
29200;SDS011;16244;51.956;12.980;2024-03-17T05:04:58;5.50;;;1.63;;
29200;SDS011;16244;51.956;12.980;2024-03-17T05:07:26;5.80;;;1.40;;
29200;SDS011;16244;51.956;12.980;2024-03-17T05:09:54;7.60;;;1.67;;
29200;SDS011;16244;51.956;12.980;2024-03-17T05:12:21;5.00;;;1.50;;
29200;SDS011;16244;51.956;12.980;2024-03-17T05:14:49;6.60;;;1.50;;
29200;SDS011;16244;51.956;12.980;2024-03-17T05:17:17;8.07;;;1.33;;
29200;SDS011;16244;51.956;12.980;2024-03-17T05:19:45;13.63;;;1.87;;
29200;SDS011;16244;51.956;12.980;2024-03-17T05:22:12;16.53;;;4.00;;
29200;SDS011;16244;51.956;12.980;2024-03-17T05:24:40;3.33;;;1.20;;
29200;SDS011;16244;51.956;12.980;2024-03-17T05:27:07;5.70;;;1.20;;
29200;SDS011;16244;51.956;12.980;2024-03-17T05:29:35;1.40;;;1.30;;
29200;SDS011;16244;51.956;12.980;2024-03-17T05:32:03;2.60;;;1.30;;
29200;SDS011;16244;51.956;12.980;2024-03-17T05:34:32;2.20;;;1.30;;
29200;SDS011;16244;51.956;12.980;2024-03-17T05:37:00;5.13;;;1.80;;
29200;SDS011;16244;51.956;12.980;2024-03-17T05:39:28;1.87;;;1.60;;
29200;SDS011;16244;51.956;12.980;2024-03-17T05:41:56;10.63;;;2.30;;
29200;SDS011;16244;51.956;12.980;2024-03-17T05:44:23;7.30;;;2.97;;
29200;SDS011;16244;51.956;12.980;2024-03-17T05:46:51;2.47;;;2.23;;
29200;SDS011;16244;51.956;12.980;2024-03-17T05:49:19;3.03;;;2.90;;
29200;SDS011;16244;51.956;12.980;2024-03-17T05:51:49;1.93;;;1.83;;
29200;SDS011;16244;51.956;12.980;2024-03-17T05:54:16;1.73;;;1.63;;
29200;SDS011;16244;51.956;12.980;2024-03-17T05:56:44;1.77;;;1.67;;
29200;SDS011;16244;51.956;12.980;2024-03-17T05:59:11;3.33;;;1.83;;
29200;SDS011;16244;51.956;12.980;2024-03-17T06:01:41;4.77;;;2.00;;
29200;SDS011;16244;51.956;12.980;2024-03-17T06:04:09;6.00;;;1.80;;
29200;SDS011;16244;51.956;12.980;2024-03-17T06:06:36;10.23;;;4.67;;
29200;SDS011;16244;51.956;12.980;2024-03-17T06:09:05;6.43;;;2.90;;
29200;SDS011;16244;51.956;12.980;2024-03-17T06:11:36;3.27;;;3.00;;
29200;SDS011;16244;51.956;12.980;2024-03-17T06:14:03;8.40;;;2.47;;
29200;SDS011;16244;51.956;12.980;2024-03-17T06:16:35;5.70;;;2.50;;
29200;SDS011;16244;51.956;12.980;2024-03-17T06:19:04;4.37;;;1.90;;
29200;SDS011;16244;51.956;12.980;2024-03-17T06:21:33;3.47;;;1.20;;
29200;SDS011;16244;51.956;12.980;2024-03-17T06:24:00;6.40;;;1.60;;
29200;SDS011;16244;51.956;12.980;2024-03-17T06:26:29;3.83;;;1.80;;
29200;SDS011;16244;51.956;12.980;2024-03-17T06:29:00;2.70;;;1.60;;
29200;SDS011;16244;51.956;12.980;2024-03-17T06:31:29;7.57;;;2.27;;
29200;SDS011;16244;51.956;12.980;2024-03-17T06:33:57;3.23;;;1.63;;
29200;SDS011;16244;51.956;12.980;2024-03-17T06:36:25;7.00;;;1.90;;
29200;SDS011;16244;51.956;12.980;2024-03-17T06:38:52;3.93;;;1.20;;
29200;SDS011;16244;51.956;12.980;2024-03-17T06:41:20;3.33;;;1.13;;
29200;SDS011;16244;51.956;12.980;2024-03-17T06:43:49;2.33;;;1.17;;
29200;SDS011;16244;51.956;12.980;2024-03-17T06:46:17;5.40;;;1.37;;
29200;SDS011;16244;51.956;12.980;2024-03-17T06:48:44;3.77;;;1.70;;
29200;SDS011;16244;51.956;12.980;2024-03-17T06:51:11;2.77;;;1.10;;
29200;SDS011;16244;51.956;12.980;2024-03-17T06:53:39;8.40;;;1.60;;
29200;SDS011;16244;51.956;12.980;2024-03-17T06:56:06;4.97;;;1.40;;
29200;SDS011;16244;51.956;12.980;2024-03-17T06:58:35;5.23;;;1.50;;
29200;SDS011;16244;51.956;12.980;2024-03-17T07:01:04;7.27;;;1.53;;
29200;SDS011;16244;51.956;12.980;2024-03-17T07:03:32;2.00;;;1.10;;
29200;SDS011;16244;51.956;12.980;2024-03-17T07:06:00;5.30;;;1.20;;
29200;SDS011;16244;51.956;12.980;2024-03-17T07:08:29;7.37;;;1.43;;
29200;SDS011;16244;51.956;12.980;2024-03-17T07:10:58;3.70;;;0.83;;
29200;SDS011;16244;51.956;12.980;2024-03-17T07:13:29;3.03;;;0.97;;
29200;SDS011;16244;51.956;12.980;2024-03-17T07:15:57;2.33;;;1.20;;
29200;SDS011;16244;51.956;12.980;2024-03-17T07:18:27;6.83;;;1.60;;
29200;SDS011;16244;51.956;12.980;2024-03-17T07:20:56;5.80;;;1.20;;
29200;SDS011;16244;51.956;12.980;2024-03-17T07:23:24;1.83;;;1.40;;
29200;SDS011;16244;51.956;12.980;2024-03-17T07:25:52;6.43;;;1.37;;
29200;SDS011;16244;51.956;12.980;2024-03-17T07:28:22;13.40;;;1.53;;
29200;SDS011;16244;51.956;12.980;2024-03-17T07:31:00;5.03;;;1.10;;
29200;SDS011;16244;51.956;12.980;2024-03-17T07:33:29;3.20;;;1.53;;
29200;SDS011;16244;51.956;12.980;2024-03-17T07:35:57;21.23;;;5.70;;
29200;SDS011;16244;51.956;12.980;2024-03-17T07:38:27;7.40;;;2.70;;
29200;SDS011;16244;51.956;12.980;2024-03-17T07:40:56;9.00;;;1.40;;
29200;SDS011;16244;51.956;12.980;2024-03-17T07:43:25;1.10;;;0.70;;
29200;SDS011;16244;51.956;12.980;2024-03-17T07:45:56;7.17;;;1.47;;
29200;SDS011;16244;51.956;12.980;2024-03-17T07:48:24;6.63;;;1.07;;
29200;SDS011;16244;51.956;12.980;2024-03-17T07:50:56;10.20;;;1.53;;
29200;SDS011;16244;51.956;12.980;2024-03-17T07:53:26;3.63;;;1.33;;
29200;SDS011;16244;51.956;12.980;2024-03-17T07:55:57;10.57;;;5.70;;
29200;SDS011;16244;51.956;12.980;2024-03-17T07:58:29;10.27;;;7.60;;
29200;SDS011;16244;51.956;12.980;2024-03-17T08:00:59;8.03;;;7.33;;
29200;SDS011;16244;51.956;12.980;2024-03-17T08:03:28;2.00;;;1.77;;
29200;SDS011;16244;51.956;12.980;2024-03-17T08:05:58;8.90;;;2.07;;
29200;SDS011;16244;51.956;12.980;2024-03-17T08:08:27;12.30;;;2.30;;
29200;SDS011;16244;51.956;12.980;2024-03-17T08:10:53;2.00;;;1.57;;
29200;SDS011;16244;51.956;12.980;2024-03-17T08:13:21;8.07;;;1.13;;
29200;SDS011;16244;51.956;12.980;2024-03-17T08:15:55;4.20;;;0.70;;
29200;SDS011;16244;51.956;12.980;2024-03-17T08:18:24;5.43;;;0.90;;
29200;SDS011;16244;51.956;12.980;2024-03-17T08:20:53;4.63;;;1.07;;
29200;SDS011;16244;51.956;12.980;2024-03-17T08:23:22;5.03;;;1.43;;
29200;SDS011;16244;51.956;12.980;2024-03-17T08:25:53;9.60;;;1.00;;
29200;SDS011;16244;51.956;12.980;2024-03-17T08:28:20;5.13;;;1.10;;
29200;SDS011;16244;51.956;12.980;2024-03-17T08:30:52;2.30;;;0.60;;
29200;SDS011;16244;51.956;12.980;2024-03-17T08:33:20;2.10;;;0.67;;
29200;SDS011;16244;51.956;12.980;2024-03-17T08:35:55;2.60;;;0.50;;
29200;SDS011;16244;51.956;12.980;2024-03-17T08:38:26;3.87;;;0.60;;
29200;SDS011;16244;51.956;12.980;2024-03-17T08:40:55;1.27;;;0.60;;
29200;SDS011;16244;51.956;12.980;2024-03-17T08:43:23;7.53;;;1.00;;
29200;SDS011;16244;51.956;12.980;2024-03-17T08:45:54;10.17;;;1.00;;
29200;SDS011;16244;51.956;12.980;2024-03-17T08:48:25;3.13;;;0.70;;
29200;SDS011;16244;51.956;12.980;2024-03-17T08:50:52;2.40;;;0.60;;
29200;SDS011;16244;51.956;12.980;2024-03-17T08:53:20;6.00;;;0.90;;
29200;SDS011;16244;51.956;12.980;2024-03-17T08:55:51;2.20;;;0.60;;
29200;SDS011;16244;51.956;12.980;2024-03-17T08:58:19;3.13;;;0.67;;
29200;SDS011;16244;51.956;12.980;2024-03-17T09:00:47;3.10;;;1.10;;
29200;SDS011;16244;51.956;12.980;2024-03-17T09:03:17;5.13;;;0.80;;
29200;SDS011;16244;51.956;12.980;2024-03-17T09:05:45;5.73;;;1.10;;
29200;SDS011;16244;51.956;12.980;2024-03-17T09:08:15;1.83;;;0.77;;
29200;SDS011;16244;51.956;12.980;2024-03-17T09:10:46;4.77;;;1.07;;
29200;SDS011;16244;51.956;12.980;2024-03-17T09:13:16;2.63;;;0.80;;
29200;SDS011;16244;51.956;12.980;2024-03-17T09:15:50;0.97;;;0.70;;
29200;SDS011;16244;51.956;12.980;2024-03-17T09:18:18;7.00;;;1.87;;
29200;SDS011;16244;51.956;12.980;2024-03-17T09:20:57;3.73;;;0.90;;
29200;SDS011;16244;51.956;12.980;2024-03-17T09:23:27;3.17;;;1.33;;
29200;SDS011;16244;51.956;12.980;2024-03-17T09:25:56;5.33;;;1.30;;
29200;SDS011;16244;51.956;12.980;2024-03-17T09:28:26;4.30;;;1.07;;
29200;SDS011;16244;51.956;12.980;2024-03-17T09:30:54;2.83;;;0.87;;
29200;SDS011;16244;51.956;12.980;2024-03-17T09:33:23;12.47;;;3.37;;
29200;SDS011;16244;51.956;12.980;2024-03-17T09:35:54;3.63;;;1.63;;
29200;SDS011;16244;51.956;12.980;2024-03-17T09:38:23;4.63;;;1.17;;
29200;SDS011;16244;51.956;12.980;2024-03-17T09:40:53;5.70;;;0.80;;
29200;SDS011;16244;51.956;12.980;2024-03-17T09:43:28;1.23;;;0.60;;
29200;SDS011;16244;51.956;12.980;2024-03-17T09:45:56;3.57;;;0.60;;
29200;SDS011;16244;51.956;12.980;2024-03-17T09:48:24;4.00;;;0.60;;
29200;SDS011;16244;51.956;12.980;2024-03-17T09:50:55;2.73;;;0.50;;
29200;SDS011;16244;51.956;12.980;2024-03-17T09:53:23;8.50;;;0.53;;
29200;SDS011;16244;51.956;12.980;2024-03-17T09:55:54;2.60;;;0.70;;
29200;SDS011;16244;51.956;12.980;2024-03-17T09:58:24;0.83;;;0.50;;
29200;SDS011;16244;51.956;12.980;2024-03-17T10:00:53;3.17;;;0.77;;
29200;SDS011;16244;51.956;12.980;2024-03-17T10:03:39;6.20;;;0.60;;
29200;SDS011;16244;51.956;12.980;2024-03-17T10:06:08;1.90;;;0.60;;
29200;SDS011;16244;51.956;12.980;2024-03-17T10:08:41;1.87;;;0.90;;
29200;SDS011;16244;51.956;12.980;2024-03-17T10:11:09;4.33;;;1.13;;
29200;SDS011;16244;51.956;12.980;2024-03-17T10:13:37;1.07;;;0.50;;
29200;SDS011;16244;51.956;12.980;2024-03-17T10:16:06;0.60;;;0.60;;
29200;SDS011;16244;51.956;12.980;2024-03-17T10:18:33;2.20;;;0.70;;
29200;SDS011;16244;51.956;12.980;2024-03-17T10:21:01;0.60;;;0.60;;
29200;SDS011;16244;51.956;12.980;2024-03-17T10:23:32;4.40;;;0.50;;
29200;SDS011;16244;51.956;12.980;2024-03-17T10:26:02;3.53;;;0.50;;
29200;SDS011;16244;51.956;12.980;2024-03-17T10:28:43;0.97;;;0.40;;
29200;SDS011;16244;51.956;12.980;2024-03-17T10:31:13;0.97;;;0.50;;
29200;SDS011;16244;51.956;12.980;2024-03-17T10:33:40;3.80;;;0.60;;
29200;SDS011;16244;51.956;12.980;2024-03-17T10:36:15;2.17;;;0.53;;
29200;SDS011;16244;51.956;12.980;2024-03-17T10:38:51;1.00;;;0.40;;
29200;SDS011;16244;51.956;12.980;2024-03-17T10:41:19;0.60;;;0.43;;
29200;SDS011;16244;51.956;12.980;2024-03-17T10:43:48;3.63;;;0.50;;
29200;SDS011;16244;51.956;12.980;2024-03-17T10:46:17;8.43;;;0.50;;
29200;SDS011;16244;51.956;12.980;2024-03-17T10:48:47;0.53;;;0.40;;
29200;SDS011;16244;51.956;12.980;2024-03-17T10:51:19;0.40;;;0.40;;
29200;SDS011;16244;51.956;12.980;2024-03-17T10:53:47;1.13;;;0.43;;
29200;SDS011;16244;51.956;12.980;2024-03-17T10:56:19;1.63;;;0.50;;
29200;SDS011;16244;51.956;12.980;2024-03-17T10:58:48;3.23;;;0.40;;
29200;SDS011;16244;51.956;12.980;2024-03-17T11:01:24;3.43;;;0.70;;
29200;SDS011;16244;51.956;12.980;2024-03-17T11:03:51;0.70;;;0.40;;
29200;SDS011;16244;51.956;12.980;2024-03-17T11:06:20;1.03;;;0.50;;
29200;SDS011;16244;51.956;12.980;2024-03-17T11:08:49;1.00;;;0.50;;
29200;SDS011;16244;51.956;12.980;2024-03-17T11:14:17;2.23;;;0.47;;
29200;SDS011;16244;51.956;12.980;2024-03-17T11:16:47;0.80;;;0.47;;
29200;SDS011;16244;51.956;12.980;2024-03-17T11:19:15;1.20;;;1.00;;
29200;SDS011;16244;51.956;12.980;2024-03-17T11:21:43;1.10;;;0.50;;
29200;SDS011;16244;51.956;12.980;2024-03-17T11:24:18;1.50;;;0.40;;
29200;SDS011;16244;51.956;12.980;2024-03-17T11:26:47;1.17;;;0.40;;
29200;SDS011;16244;51.956;12.980;2024-03-17T11:29:28;1.67;;;0.40;;
29200;SDS011;16244;51.956;12.980;2024-03-17T11:31:59;1.70;;;0.50;;
29200;SDS011;16244;51.956;12.980;2024-03-17T11:34:28;1.13;;;0.40;;
29200;SDS011;16244;51.956;12.980;2024-03-17T11:36:57;7.07;;;3.57;;
29200;SDS011;16244;51.956;12.980;2024-03-17T11:39:48;4.27;;;3.70;;
29200;SDS011;16244;51.956;12.980;2024-03-17T11:42:22;10.20;;;3.83;;
29200;SDS011;16244;51.956;12.980;2024-03-17T11:44:55;4.00;;;2.20;;
29200;SDS011;16244;51.956;12.980;2024-03-17T11:47:33;3.13;;;0.90;;
29200;SDS011;16244;51.956;12.980;2024-03-17T11:50:02;1.13;;;0.50;;
29200;SDS011;16244;51.956;12.980;2024-03-17T11:52:30;2.23;;;1.73;;
29200;SDS011;16244;51.956;12.980;2024-03-17T11:54:58;1.10;;;1.00;;
29200;SDS011;16244;51.956;12.980;2024-03-17T11:57:25;1.00;;;0.93;;
29200;SDS011;16244;51.956;12.980;2024-03-17T11:59:54;0.97;;;0.93;;
29200;SDS011;16244;51.956;12.980;2024-03-17T12:02:22;0.87;;;0.50;;
29200;SDS011;16244;51.956;12.980;2024-03-17T12:04:54;4.47;;;0.50;;
29200;SDS011;16244;51.956;12.980;2024-03-17T12:07:23;1.87;;;1.40;;
29200;SDS011;16244;51.956;12.980;2024-03-17T12:09:54;16.87;;;6.63;;
29200;SDS011;16244;51.956;12.980;2024-03-17T12:12:23;43.23;;;19.40;;
29200;SDS011;16244;51.956;12.980;2024-03-17T12:15:00;16.77;;;7.80;;
29200;SDS011;16244;51.956;12.980;2024-03-17T12:17:28;42.63;;;18.07;;
29200;SDS011;16244;51.956;12.980;2024-03-17T12:19:57;34.13;;;15.80;;
29200;SDS011;16244;51.956;12.980;2024-03-17T12:22:25;27.47;;;11.77;;
29200;SDS011;16244;51.956;12.980;2024-03-17T12:24:53;11.00;;;7.40;;
29200;SDS011;16244;51.956;12.980;2024-03-17T12:27:21;29.10;;;13.47;;
29200;SDS011;16244;51.956;12.980;2024-03-17T12:29:50;21.03;;;10.10;;
29200;SDS011;16244;51.956;12.980;2024-03-17T12:32:18;8.00;;;6.30;;
29200;SDS011;16244;51.956;12.980;2024-03-17T12:34:48;2.37;;;0.60;;
29200;SDS011;16244;51.956;12.980;2024-03-17T12:37:18;5.60;;;0.70;;
29200;SDS011;16244;51.956;12.980;2024-03-17T12:39:46;1.23;;;0.67;;
29200;SDS011;16244;51.956;12.980;2024-03-17T12:42:15;1.13;;;0.50;;
29200;SDS011;16244;51.956;12.980;2024-03-17T12:44:47;1.20;;;0.50;;
29200;SDS011;16244;51.956;12.980;2024-03-17T12:47:15;1.63;;;0.83;;
29200;SDS011;16244;51.956;12.980;2024-03-17T12:49:46;1.13;;;0.50;;
29200;SDS011;16244;51.956;12.980;2024-03-17T12:52:19;1.83;;;0.63;;
29200;SDS011;16244;51.956;12.980;2024-03-17T12:54:56;5.40;;;0.50;;
29200;SDS011;16244;51.956;12.980;2024-03-17T12:57:43;1.43;;;0.50;;
29200;SDS011;16244;51.956;12.980;2024-03-17T13:00:43;0.63;;;0.40;;
29200;SDS011;16244;51.956;12.980;2024-03-17T13:03:21;3.03;;;0.80;;
29200;SDS011;16244;51.956;12.980;2024-03-17T13:05:50;2.30;;;0.40;;
29200;SDS011;16244;51.956;12.980;2024-03-17T13:08:19;2.43;;;0.67;;
29200;SDS011;16244;51.956;12.980;2024-03-17T13:10:47;1.33;;;0.40;;
29200;SDS011;16244;51.956;12.980;2024-03-17T13:13:15;1.03;;;0.47;;
29200;SDS011;16244;51.956;12.980;2024-03-17T13:15:43;0.53;;;0.53;;
29200;SDS011;16244;51.956;12.980;2024-03-17T13:18:15;1.13;;;0.40;;
29200;SDS011;16244;51.956;12.980;2024-03-17T13:20:44;2.60;;;0.53;;
29200;SDS011;16244;51.956;12.980;2024-03-17T13:23:12;3.70;;;0.40;;
29200;SDS011;16244;51.956;12.980;2024-03-17T13:25:41;6.03;;;0.50;;
29200;SDS011;16244;51.956;12.980;2024-03-17T13:28:11;1.23;;;0.40;;
29200;SDS011;16244;51.956;12.980;2024-03-17T13:30:38;2.53;;;0.57;;
29200;SDS011;16244;51.956;12.980;2024-03-17T13:33:07;2.33;;;0.70;;
29200;SDS011;16244;51.956;12.980;2024-03-17T13:35:36;2.33;;;0.50;;
29200;SDS011;16244;51.956;12.980;2024-03-17T13:38:05;1.27;;;0.50;;
29200;SDS011;16244;51.956;12.980;2024-03-17T13:40:33;1.53;;;0.40;;
29200;SDS011;16244;51.956;12.980;2024-03-17T13:43:03;4.30;;;0.60;;
29200;SDS011;16244;51.956;12.980;2024-03-17T13:45:32;4.93;;;0.40;;
29200;SDS011;16244;51.956;12.980;2024-03-17T13:48:06;1.90;;;0.50;;
29200;SDS011;16244;51.956;12.980;2024-03-17T13:50:36;0.60;;;0.40;;
29200;SDS011;16244;51.956;12.980;2024-03-17T13:53:10;1.90;;;0.40;;
29200;SDS011;16244;51.956;12.980;2024-03-17T13:55:37;1.03;;;0.73;;
29200;SDS011;16244;51.956;12.980;2024-03-17T13:58:09;0.57;;;0.40;;
29200;SDS011;16244;51.956;12.980;2024-03-17T14:00:38;1.63;;;0.40;;
29200;SDS011;16244;51.956;12.980;2024-03-17T14:03:08;0.90;;;0.40;;
29200;SDS011;16244;51.956;12.980;2024-03-17T14:05:36;1.03;;;0.40;;
29200;SDS011;16244;51.956;12.980;2024-03-17T14:08:03;1.83;;;0.50;;
29200;SDS011;16244;51.956;12.980;2024-03-17T14:10:32;2.00;;;0.40;;
29200;SDS011;16244;51.956;12.980;2024-03-17T14:13:01;3.30;;;0.60;;
29200;SDS011;16244;51.956;12.980;2024-03-17T14:15:30;5.53;;;0.50;;
29200;SDS011;16244;51.956;12.980;2024-03-17T14:17:57;0.60;;;0.50;;
29200;SDS011;16244;51.956;12.980;2024-03-17T14:20:25;0.93;;;0.40;;
29200;SDS011;16244;51.956;12.980;2024-03-17T14:22:52;6.53;;;0.57;;
29200;SDS011;16244;51.956;12.980;2024-03-17T14:25:23;0.57;;;0.57;;
29200;SDS011;16244;51.956;12.980;2024-03-17T14:27:51;1.93;;;0.50;;
29200;SDS011;16244;51.956;12.980;2024-03-17T14:30:19;1.10;;;0.47;;
29200;SDS011;16244;51.956;12.980;2024-03-17T14:32:48;0.80;;;0.40;;
29200;SDS011;16244;51.956;12.980;2024-03-17T14:35:17;3.40;;;0.50;;
29200;SDS011;16244;51.956;12.980;2024-03-17T14:37:46;5.43;;;0.53;;
29200;SDS011;16244;51.956;12.980;2024-03-17T14:40:14;1.93;;;0.60;;
29200;SDS011;16244;51.956;12.980;2024-03-17T14:42:47;0.93;;;0.57;;
29200;SDS011;16244;51.956;12.980;2024-03-17T14:45:16;1.13;;;0.50;;
29200;SDS011;16244;51.956;12.980;2024-03-17T14:47:44;0.60;;;0.50;;